Time;durP1;ratioP1;P1;durP2;ratioP2;P2;SDS_P1;SDS_P2;PMS_P1;PMS_P2;Temp;Humidity;BMP_temperature;BMP_pressure;BME280_temperature;BME280_humidity;BME280_pressure;Samples;Min_cycle;Max_cycle;Signal;HPM_P1;HPM_P2
2023/10/10 00:01:17;;;;;;;18.67;9.20;;;460.80;2380.80;;;;;;6245527;23;20073;-73
2023/10/10 00:03:45;;;;;;;24.00;9.23;;;436.10;2355.20;;;;;;6245544;23;19996;-75
2023/10/10 00:06:13;;;;;;;17.10;8.35;;;460.80;2380.80;;;;;;6245338;23;20004;-75
2023/10/10 00:08:40;;;;;;;17.38;9.90;;;460.80;2380.80;;;;;;6245140;23;20095;-75
2023/10/10 00:11:11;;;;;;;17.70;10.25;;;460.80;2380.80;;;;;;6245535;23;20008;-74
2023/10/10 00:13:43;;;;;;;20.48;10.38;;;460.90;2380.80;;;;;;6245475;23;19992;-73
2023/10/10 00:16:11;;;;;;;19.25;10.57;;;460.90;2380.80;;;;;;6245591;23;20076;-75
2023/10/10 00:18:43;;;;;;;21.08;11.40;;;460.90;2380.80;;;;;;6245093;23;20008;-74
2023/10/10 00:21:17;;;;;;;21.33;10.60;;;460.90;2380.80;;;;;;6245399;23;20419;-73
2023/10/10 00:23:43;;;;;;;21.75;10.65;;;460.90;2380.80;;;;;;6218547;23;20008;-75
2023/10/10 00:26:12;;;;;;;23.17;9.95;;;460.90;2380.80;;;;;;6245462;23;20045;-75
2023/10/10 00:28:44;;;;;;;23.73;9.73;;;460.90;2380.80;;;;;;6245457;23;20004;-75
2023/10/10 00:31:18;;;;;;;25.52;10.82;;;460.90;2380.80;;;;;;6245495;23;19999;-75
2023/10/10 00:33:50;;;;;;;23.95;9.70;;;461.00;2380.80;;;;;;6218666;23;20012;-76
2023/10/10 00:36:22;;;;;;;28.02;10.77;;;461.00;2380.80;;;;;;6246963;23;20028;-75
2023/10/10 00:39:05;;;;;;;19.40;9.18;;;461.10;2380.80;;;;;;6247001;23;20008;-75
2023/10/10 00:41:30;;;;;;;23.88;10.60;;;461.00;2380.80;;;;;;6247179;23;20099;-75
2023/10/10 00:43:56;;;;;;;19.23;9.75;;;461.00;2380.80;;;;;;6247098;23;20430;-74
2023/10/10 00:46:25;;;;;;;22.67;10.02;;;461.10;2380.80;;;;;;6247254;23;20000;-74
2023/10/10 00:48:59;;;;;;;25.05;9.90;;;461.10;2380.80;;;;;;6246956;23;20000;-74
2023/10/10 00:51:33;;;;;;;21.45;9.80;;;461.10;2380.80;;;;;;6247227;23;20008;-74
2023/10/10 00:54:16;;;;;;;21.92;10.38;;;461.00;2380.80;;;;;;6247126;23;20004;-75
2023/10/10 00:56:44;;;;;;;14.85;8.63;;;461.10;2380.80;;;;;;6247025;23;20000;-74
2023/10/10 00:59:11;;;;;;;25.60;10.02;;;461.00;2380.80;;;;;;6246901;23;20312;-75
2023/10/10 01:01:40;;;;;;;23.35;10.13;;;461.10;2380.80;;;;;;6246917;23;20007;-74
2023/10/10 01:04:09;;;;;;;22.95;10.48;;;461.10;2380.80;;;;;;6247068;23;20000;-74
2023/10/10 01:06:39;;;;;;;23.38;11.68;;;461.10;2380.80;;;;;;6246689;23;20100;-74
2023/10/10 01:09:21;;;;;;;23.10;9.82;;;461.10;2380.80;;;;;;6246736;23;20108;-73
2023/10/10 01:11:51;;;;;;;31.85;9.70;;;461.10;2380.80;;;;;;6246677;23;20000;-74
2023/10/10 01:14:26;;;;;;;18.60;9.73;;;461.10;2380.80;;;;;;6246989;23;20087;-74
2023/10/10 01:16:57;;;;;;;27.20;10.52;;;461.10;2380.80;;;;;;6246927;23;20023;-74
2023/10/10 01:19:28;;;;;;;21.45;8.48;;;461.10;2380.80;;;;;;6219153;23;20327;-74
2023/10/10 01:21:58;;;;;;;16.27;8.90;;;461.10;2380.80;;;;;;6246750;23;20000;-74
2023/10/10 01:24:33;;;;;;;26.15;9.45;;;461.10;2380.80;;;;;;6246636;23;20008;-75
2023/10/10 01:27:13;;;;;;;19.95;8.90;;;461.20;2380.80;;;;;;6246748;23;19997;-74
2023/10/10 01:29:49;;;;;;;18.85;8.40;;;461.20;2380.80;;;;;;6246607;23;20083;-75
2023/10/10 01:32:17;;;;;;;20.20;9.07;;;461.20;2380.80;;;;;;6219867;23;20330;-75
2023/10/10 01:34:43;;;;;;;18.02;8.30;;;461.20;2380.80;;;;;;6246489;23;20004;-75
2023/10/10 01:37:22;;;;;;;20.67;9.63;;;461.20;2380.80;;;;;;6219080;23;20004;-75
2023/10/10 01:40:06;;;;;;;21.15;9.73;;;461.20;2380.80;;;;;;6246420;23;20393;-74
2023/10/10 01:42:37;;;;;;;17.92;8.73;;;461.10;2380.80;;;;;;6246428;23;20004;-74
2023/10/10 01:45:08;;;;;;;24.50;8.23;;;461.10;2380.80;;;;;;6246369;23;19996;-75
2023/10/10 01:47:39;;;;;;;20.98;8.40;;;461.10;2380.80;;;;;;6246576;23;20012;-75
2023/10/10 01:50:10;;;;;;;17.70;9.05;;;461.10;2380.80;;;;;;6246371;23;19996;-74
2023/10/10 01:52:46;;;;;;;21.67;7.78;;;461.10;2380.80;;;;;;6246567;23;20014;-74
2023/10/10 01:55:12;;;;;;;22.25;8.90;;;460.90;2380.80;;;;;;6246576;23;19997;-75
2023/10/10 01:57:38;;;;;;;17.42;7.93;;;460.90;2380.80;;;;;;6246412;23;20010;-75
2023/10/10 02:00:51;;;;;;;14.02;8.45;;;460.90;2380.80;;;;;;6246270;23;20036;-75
2023/10/10 02:02:52;;;;;;;15.68;7.40;;;461.10;2380.80;;;;;;6230050;23;20008;-74
2023/10/10 02:08:09;;;;;;;23.48;8.82;;;461.00;2380.80;;;;;;6246545;23;20024;-75
2023/10/10 02:10:36;;;;;;;17.05;8.70;;;460.90;2380.80;;;;;;6219433;23;20077;-74
2023/10/10 02:13:06;;;;;;;18.65;8.40;;;460.90;2380.80;;;;;;6246341;23;20027;-74
2023/10/10 02:15:35;;;;;;;16.45;8.77;;;460.90;2380.80;;;;;;6246331;23;20071;-74
2023/10/10 02:18:12;;;;;;;21.48;9.02;;;460.80;2380.80;;;;;;6246158;23;20042;-75
2023/10/10 02:23:31;;;;;;;18.73;9.20;;;460.80;2380.80;;;;;;6256274;23;20054;-75
2023/10/10 02:26:03;;;;;;;20.77;8.30;;;460.90;2380.80;;;;;;6246126;23;20438;-74
2023/10/10 02:31:28;;;;;;;15.90;7.40;;;460.80;2380.80;;;;;;6155515;23;20149;-74
2023/10/10 02:34:02;;;;;;;14.80;7.90;;;460.90;2380.80;;;;;;6153331;23;20088;-73
2023/10/10 02:36:31;;;;;;;20.73;9.23;;;460.80;2380.80;;;;;;6153200;23;20092;-74
2023/10/10 02:42:03;;;;;;;18.45;7.68;;;460.90;2380.80;;;;;;6041610;23;20010;-73
2023/10/10 02:44:46;;;;;;;16.45;8.40;;;460.80;2380.80;;;;;;6037406;23;20007;-76
2023/10/10 02:47:12;;;;;;;16.90;7.85;;;460.80;2380.80;;;;;;6037202;23;20333;-73
2023/10/10 02:49:38;;;;;;;21.80;8.30;;;460.90;2380.80;;;;;;6036994;23;20007;-73
2023/10/10 02:52:06;;;;;;;20.50;7.95;;;460.90;2380.80;;;;;;6037194;23;20090;-74
2023/10/10 02:54:34;;;;;;;15.98;8.02;;;460.90;2380.80;;;;;;6037051;23;20450;-74
2023/10/10 02:59:52;;;;;;;18.00;7.00;;;460.90;2380.80;;;;;;6046436;23;20025;-74
2023/10/10 03:02:19;;;;;;;18.35;7.50;;;460.90;2380.80;;;;;;6036804;23;20004;-74
2023/10/10 03:07:29;;;;;;;12.68;6.28;;;460.90;2380.80;;;;;;6070370;23;20018;-73
2023/10/10 03:12:43;;;;;;;18.30;6.72;;;461.00;2380.80;;;;;;6133692;23;20040;-73
2023/10/10 03:17:51;;;;;;;14.40;6.30;;;461.10;2380.80;;;;;;6179239;23;20012;-74
2023/10/10 03:20:48;;;;;;;9.77;6.00;;;461.10;2380.80;;;;;;6215304;23;20436;-74
2023/10/10 03:25:53;;;;;;;15.70;7.38;;;461.10;2380.80;;;;;;6225924;23;20014;-75
2023/10/10 03:31:04;;;;;;;12.07;6.68;;;461.20;2380.80;;;;;;6225427;23;20011;-74
2023/10/10 05:25:41;;;;;;;17.05;8.75;;;460.80;2380.80;;;;;;6154179;23;20012;-70
2023/10/10 05:28:09;;;;;;;16.20;8.02;;;460.90;2380.80;;;;;;6153877;23;20068;-75
2023/10/10 05:30:45;;;;;;;15.07;7.00;;;460.90;2380.80;;;;;;6154040;23;20002;-74
2023/10/10 05:33:19;;;;;;;24.33;8.13;;;460.90;2380.80;;;;;;6128860;23;20010;-73
2023/10/10 05:35:48;;;;;;;20.77;8.10;;;461.10;2380.80;;;;;;6153428;23;20002;-74
2023/10/10 05:38:15;;;;;;;17.30;6.65;;;461.10;2380.80;;;;;;6154041;23;20468;-74
2023/10/10 05:40:43;;;;;;;12.70;7.15;;;461.20;2380.80;;;;;;6153030;23;20009;-73
2023/10/10 05:43:14;;;;;;;15.93;7.70;;;461.20;2380.80;;;;;;6153109;23;20005;-72
2023/10/10 05:45:41;;;;;;;17.55;6.93;;;461.20;2380.80;;;;;;6153591;23;20005;-73
2023/10/10 05:48:07;;;;;;;16.33;6.53;;;461.30;2380.80;;;;;;6190908;23;20327;-72
2023/10/10 05:50:32;;;;;;;12.25;6.03;;;461.40;2380.80;;;;;;6246354;23;20000;-73
2023/10/10 05:53:05;;;;;;;14.23;6.97;;;461.30;2380.80;;;;;;6246261;23;20028;-73
2023/10/10 05:55:35;;;;;;;15.07;6.65;;;461.20;2380.80;;;;;;6246178;23;20000;-73
2023/10/10 05:58:02;;;;;;;14.13;6.68;;;461.30;2380.80;;;;;;6246507;23;20000;-72
2023/10/10 06:00:32;;;;;;;13.57;6.53;;;461.30;2380.80;;;;;;6246025;23;20090;-73
2023/10/10 06:02:58;;;;;;;14.43;6.53;;;461.20;2380.80;;;;;;6246207;23;20000;-72
2023/10/10 06:05:23;;;;;;;13.63;6.68;;;461.10;2380.80;;;;;;6246410;23;20423;-72
2023/10/10 06:07:49;;;;;;;13.25;7.10;;;461.10;2380.80;;;;;;6245538;23;20062;-72
2023/10/10 06:10:16;;;;;;;15.15;6.10;;;461.10;2380.80;;;;;;6246237;23;20071;-72
2023/10/10 06:12:48;;;;;;;10.60;5.78;;;461.10;2380.80;;;;;;6246081;23;20054;-72
2023/10/10 06:15:18;;;;;;;12.43;4.95;;;461.10;2380.80;;;;;;6245753;23;19996;-72
2023/10/10 06:17:44;;;;;;;12.32;6.10;;;461.10;2380.80;;;;;;6245614;23;20004;-72
2023/10/10 06:20:16;;;;;;;12.60;5.25;;;461.10;2380.80;;;;;;6218855;23;20446;-73
2023/10/10 06:22:45;;;;;;;11.35;5.05;;;461.00;2380.80;;;;;;6245807;23;20434;-74
2023/10/10 06:25:11;;;;;;;12.25;5.00;;;461.10;2380.80;;;;;;6245961;23;20004;-73
2023/10/10 06:27:40;;;;;;;12.50;5.18;;;461.10;2380.80;;;;;;6246040;23;20321;-73
2023/10/10 06:30:19;;;;;;;10.65;5.55;;;461.10;2380.80;;;;;;6245532;23;20027;-74
2023/10/10 06:32:46;;;;;;;12.00;6.05;;;461.10;2380.80;;;;;;6245974;23;20323;-73
2023/10/10 06:35:37;;;;;;;14.55;6.07;;;461.10;2380.80;;;;;;6218406;23;20004;-73
2023/10/10 06:38:01;;;;;;;13.50;5.78;;;461.10;2380.80;;;;;;6244377;23;20456;-74
2023/10/10 06:40:30;;;;;;;17.00;6.22;;;461.10;2380.80;;;;;;6245614;23;20016;-72
2023/10/10 08:13:28;;;;;;;11.73;5.18;;;486.70;2380.80;;;;;;5129742;27;20434;-72
2023/10/10 08:18:53;;;;;;;9.50;5.53;;;512.00;2380.80;;;;;;5129701;28;20019;-73
2023/10/10 08:21:13;;;;;;;12.52;5.00;;;487.20;2380.80;;;;;;5127941;27;20024;-74
2023/10/10 08:23:45;;;;;;;9.20;5.13;;;487.00;2380.80;;;;;;5128268;28;20028;-73
2023/10/10 08:26:26;;;;;;;13.75;5.45;;;486.80;2380.80;;;;;;5128728;28;20019;-74
2023/10/10 08:28:53;;;;;;;15.27;5.80;;;487.00;2380.80;;;;;;5128720;28;20034;-74
2023/10/10 08:31:19;;;;;;;15.20;5.72;;;487.00;2380.80;;;;;;5129827;27;20023;-73
2023/10/10 08:44:38;;;;;;;9.70;5.28;;;486.80;2380.80;;;;;;5089306;27;20382;-74
2023/10/10 08:47:06;;;;;;;10.88;5.15;;;512.00;2380.80;;;;;;5076387;28;20094;-75
2023/10/10 08:49:32;;;;;;;12.13;5.68;;;487.20;2380.80;;;;;;5066841;28;20104;-73
2023/10/10 08:52:02;;;;;;;11.98;5.55;;;486.90;2380.80;;;;;;5067776;28;20127;-74
2023/10/10 08:54:29;;;;;;;9.20;4.90;;;486.70;2380.80;;;;;;5101012;28;20047;-74
2023/10/10 08:57:04;;;;;;;15.07;5.05;;;486.60;2380.80;;;;;;5068226;28;20028;-74
2023/10/10 08:59:31;;;;;;;8.05;4.32;;;486.60;2380.80;;;;;;5068769;28;20048;-74
2023/10/10 09:02:19;;;;;;;13.85;5.45;;;486.60;2380.80;;;;;;5068591;28;20029;-74
2023/10/10 09:04:46;;;;;;;12.85;4.80;;;486.80;2380.80;;;;;;5051059;28;20088;-73
2023/10/10 09:07:26;;;;;;;8.07;4.53;;;487.10;2380.80;;;;;;5068682;28;20029;-74
2023/10/10 09:10:04;;;;;;;9.50;4.32;;;487.10;2380.80;;;;;;5067263;28;20024;-74
2023/10/10 09:12:52;;;;;;;11.60;5.80;;;487.30;2380.80;;;;;;5068152;28;20041;-74
2023/10/10 09:15:19;;;;;;;8.23;4.88;;;512.60;2380.80;;;;;;5061525;28;20064;-73
2023/10/10 09:17:47;;;;;;;10.07;4.65;;;512.70;2380.80;;;;;;5068304;28;20017;-73
2023/10/10 09:20:28;;;;;;;8.20;4.65;;;512.90;2380.80;;;;;;5065466;28;20464;-73
2023/10/10 09:23:04;;;;;;;8.18;4.22;;;512.70;2380.80;;;;;;5067149;28;20023;-73
2023/10/10 09:25:44;;;;;;;9.68;4.78;;;512.60;2380.80;;;;;;5066459;28;20569;-73
2023/10/10 09:28:16;;;;;;;7.35;4.05;;;512.60;2380.80;;;;;;5067526;28;20028;-73
2023/10/10 09:31:12;;;;;;;8.55;4.97;;;512.60;2380.80;;;;;;5067053;28;20036;-73
2023/10/10 09:33:45;;;;;;;8.00;4.43;;;512.40;2380.80;;;;;;5056290;28;20040;-73
2023/10/10 09:36:26;;;;;;;9.18;4.63;;;512.50;2380.80;;;;;;5066918;28;20323;-74
2023/10/10 09:38:57;;;;;;;7.03;4.85;;;537.80;2406.40;;;;;;5066748;28;20397;-73
2023/10/10 10:03:55;;;;;;;5.50;3.20;;;538.00;2406.40;;;;;;5032268;28;20064;-73
2023/10/10 10:06:36;;;;;;;5.90;3.15;;;538.00;2406.40;;;;;;5032145;28;20419;-73
2023/10/10 10:09:37;;;;;;;6.43;3.47;;;538.20;2406.40;;;;;;4993085;28;20499;-73
2023/10/10 10:12:30;;;;;;;5.80;3.50;;;538.10;2406.40;;;;;;4992622;28;20401;-73
2023/10/10 10:15:24;;;;;;;7.47;3.53;;;538.10;2406.40;;;;;;5008606;28;20043;-74
2023/10/10 10:17:54;;;;;;;5.80;3.65;;;;;;;;;;4992665;28;20146;-74
2023/10/10 10:20:43;;;;;;;7.90;3.33;;;563.40;2432.00;;;;;;4992176;28;20035;-74
2023/10/10 10:23:17;;;;;;;6.60;3.80;;;563.40;2432.00;;;;;;4976109;28;20868;-74
2023/10/10 10:25:46;;;;;;;8.13;4.28;;;563.60;2432.00;;;;;;4992279;28;20027;-73
2023/10/10 10:28:15;;;;;;;7.40;3.72;;;564.10;2432.00;;;;;;5008506;28;20073;-74
2023/10/10 10:30:47;;;;;;;8.50;4.00;;;563.30;2432.00;;;;;;4992698;28;20571;-74
2023/10/10 10:33:13;;;;;;;8.07;4.32;;;563.90;2432.00;;;;;;5005993;28;20057;-72
2023/10/10 10:35:56;;;;;;;5.88;3.45;;;563.50;2432.00;;;;;;5018553;28;20037;-73
2023/10/10 10:38:23;;;;;;;7.05;3.60;;;538.40;2406.40;;;;;;5025986;28;20067;-73
2023/10/10 10:40:51;;;;;;;5.75;3.42;;;538.20;2406.40;;;;;;5050975;28;20582;-73
2023/10/10 10:43:32;;;;;;;6.70;3.60;;;538.10;2406.40;;;;;;5041942;28;20122;-73
2023/10/10 10:46:27;;;;;;;5.82;2.97;;;538.10;2406.40;;;;;;5059404;28;20059;-73
2023/10/10 10:49:05;;;;;;;9.35;3.60;;;538.10;2406.40;;;;;;5057413;28;20017;-74
2023/10/10 10:51:41;;;;;;;10.10;3.17;;;563.20;2432.00;;;;;;5050164;28;20520;-72
2023/10/10 10:54:07;;;;;;;;;;;;;;;;;;5045323;28;20033;-73
2023/10/10 10:59:13;;;;;;;5.20;3.10;;;564.10;2432.00;;;;;;5048527;28;20033;-73
2023/10/10 11:01:53;;;;;;;6.75;3.45;;;589.40;2432.00;;;;;;5057876;28;20033;-73
2023/10/10 11:04:39;;;;;;;5.18;3.38;;;589.30;2432.00;;;;;;5047534;28;20502;-73
2023/10/10 11:07:07;;;;;;;8.07;4.47;;;589.40;2432.00;;;;;;5051609;28;20060;-73
2023/10/10 11:09:36;;;;;;;8.48;3.95;;;589.60;2432.00;;;;;;5048200;28;20017;-73
2023/10/10 11:12:06;;;;;;;10.35;4.82;;;589.30;2432.00;;;;;;5047253;28;20103;-73
2023/10/10 11:14:33;;;;;;;7.15;4.45;;;588.80;2432.00;;;;;;5042873;28;20037;-73
2023/10/10 11:16:59;;;;;;;11.07;4.95;;;563.90;2432.00;;;;;;5044947;28;20495;-73
2023/10/10 11:21:57;;;;;;;8.65;5.38;;;564.10;2432.00;;;;;;5044913;28;20030;-73
2023/10/10 11:24:34;;;;;;;8.07;5.50;;;588.90;2432.00;;;;;;5045228;28;20034;-73
2023/10/10 11:29:42;;;;;;;7.00;4.15;;;589.30;2432.00;;;;;;5042405;28;20370;-73
2023/10/10 11:32:11;;;;;;;7.20;4.25;;;589.70;2432.00;;;;;;5056235;28;20017;-73
2023/10/10 11:34:46;;;;;;;8.82;4.50;;;614.40;2432.00;;;;;;5056102;28;20059;-73
2023/10/10 11:37:32;;;;;;;8.98;4.68;;;614.40;2432.00;;;;;;5040971;28;20021;-73
2023/10/10 11:40:31;;;;;;;6.63;3.83;;;614.40;2432.00;;;;;;5052865;28;20123;-73
2023/10/10 11:43:04;;;;;;;6.00;3.88;;;589.50;2432.00;;;;;;5039653;28;20487;-73
2023/10/10 11:45:40;;;;;;;5.90;3.83;;;589.10;2432.00;;;;;;5056852;28;20466;-73
2023/10/10 11:48:14;;;;;;;8.13;4.47;;;589.10;2432.00;;;;;;5050540;28;20082;-73
2023/10/10 11:50:46;;;;;;;11.65;4.97;;;589.00;2432.00;;;;;;5042251;28;20027;-72
2023/10/10 11:53:19;;;;;;;8.77;4.50;;;589.40;2432.00;;;;;;5044994;28;20077;-73
2023/10/10 11:55:45;;;;;;;5.63;3.70;;;589.60;2432.00;;;;;;5046666;28;20025;-73
2023/10/10 11:58:17;;;;;;;6.18;4.38;;;614.80;2432.00;;;;;;5049991;28;20121;-73
2023/10/10 12:00:59;;;;;;;11.43;4.65;;;615.10;2432.00;;;;;;5054839;28;20047;-73
2023/10/10 12:06:26;;;;;;;9.45;4.70;;;614.60;2432.00;;;;;;5047063;28;20029;-72
2023/10/10 12:08:53;;;;;;;10.23;5.25;;;614.50;2432.00;;;;;;5043611;28;20033;-72
2023/10/10 12:11:22;;;;;;;6.43;4.47;;;614.80;2432.00;;;;;;5048436;28;20037;-72
2023/10/10 12:13:48;;;;;;;10.20;5.78;;;614.40;2432.00;;;;;;5050167;28;20041;-72
2023/10/10 12:16:17;;;;;;;10.20;6.47;;;589.50;2432.00;;;;;;5050282;28;20048;-72
2023/10/10 12:18:45;;;;;;;6.85;4.80;;;589.30;2432.00;;;;;;5055904;28;20024;-72
2023/10/10 12:21:20;;;;;;;12.02;6.70;;;589.00;2432.00;;;;;;5060773;28;20030;-72
2023/10/10 12:23:55;;;;;;;11.55;6.25;;;588.90;2432.00;;;;;;5040660;28;20155;-72
2023/10/10 12:26:22;;;;;;;8.70;3.83;;;588.80;2432.00;;;;;;5055601;28;20130;-72
2023/10/10 12:28:50;;;;;;;8.02;4.85;;;564.10;2432.00;;;;;;5043731;28;20017;-73
2023/10/10 12:31:16;;;;;;;7.30;4.72;;;564.10;2432.00;;;;;;5038166;28;20466;-73
2023/10/10 12:33:53;;;;;;;7.28;4.57;;;564.00;2432.00;;;;;;5057969;28;20088;-72
2023/10/10 12:36:22;;;;;;;6.90;4.55;;;564.00;2432.00;;;;;;5054915;28;20024;-72
2023/10/10 12:38:48;;;;;;;7.63;3.88;;;564.00;2432.00;;;;;;5047920;28;20025;-72
2023/10/10 12:41:20;;;;;;;8.27;4.18;;;563.80;2432.00;;;;;;5046738;28;20071;-72
2023/10/10 12:43:49;;;;;;;10.18;4.55;;;563.80;2432.00;;;;;;5053996;28;20089;-72
2023/10/10 12:46:20;;;;;;;10.05;4.20;;;563.80;2432.00;;;;;;5042175;28;20026;-73
2023/10/10 12:48:49;;;;;;;9.45;4.68;;;563.70;2432.00;;;;;;5037144;28;20029;-72
2023/10/10 12:51:14;;;;;;;5.78;3.80;;;563.60;2432.00;;;;;;5052768;28;20083;-73
2023/10/10 12:53:42;;;;;;;11.65;4.45;;;563.60;2432.00;;;;;;5044787;28;20037;-73
2023/10/10 12:56:12;;;;;;;14.18;4.40;;;563.60;2432.00;;;;;;5036900;28;20091;-74
2023/10/10 12:58:51;;;;;;;6.32;3.85;;;563.60;2432.00;;;;;;5048751;28;20031;-74
2023/10/10 13:01:24;;;;;;;6.38;3.95;;;563.60;2432.00;;;;;;5045526;28;20394;-73
2023/10/10 13:03:51;;;;;;;5.55;3.58;;;563.60;2432.00;;;;;;5044589;28;20026;-73
2023/10/10 13:06:17;;;;;;;7.57;4.07;;;563.40;2432.00;;;;;;5056034;28;20029;-74
2023/10/10 13:08:54;;;;;;;12.07;3.70;;;563.60;2432.00;;;;;;5050813;28;20021;-72
2023/10/10 13:11:32;;;;;;;5.45;3.03;;;563.50;2432.00;;;;;;5044688;28;20036;-70
2023/10/10 13:14:08;;;;;;;7.97;3.70;;;563.40;2432.00;;;;;;5052405;28;20037;-70
2023/10/10 13:19:13;;;;;;;8.88;4.20;;;563.20;2432.00;;;;;;5040312;28;20087;-72
2023/10/10 13:21:41;;;;;;;6.10;3.70;;;563.20;2432.00;;;;;;5052924;28;20147;-71
2023/10/10 13:24:11;;;;;;;8.75;4.07;;;538.50;2406.40;;;;;;5054477;28;20025;-73
2023/10/10 13:26:41;;;;;;;9.82;3.22;;;563.20;2432.00;;;;;;5055716;28;20112;-73
2023/10/10 13:29:08;;;;;;;5.47;3.33;;;538.50;2406.40;;;;;;5062764;28;20029;-72
2023/10/10 13:31:34;;;;;;;9.23;4.32;;;538.50;2406.40;;;;;;5061558;28;20074;-72
2023/10/10 13:34:01;;;;;;;7.90;2.85;;;538.40;2406.40;;;;;;5063986;28;20398;-72
2023/10/10 13:36:27;;;;;;;5.97;3.30;;;538.50;2406.40;;;;;;5044979;28;20100;-72
2023/10/10 13:38:58;;;;;;;5.28;2.75;;;538.50;2406.40;;;;;;5045035;28;20055;-72
2023/10/10 13:41:28;;;;;;;5.90;3.20;;;538.50;2406.40;;;;;;5058541;28;20025;-72
2023/10/10 13:43:59;;;;;;;6.85;3.28;;;563.20;2432.00;;;;;;5053257;28;20128;-72
2023/10/10 13:46:26;;;;;;;5.78;3.13;;;563.20;2432.00;;;;;;5047570;28;20033;-73
2023/10/10 13:48:52;;;;;;;8.60;3.08;;;538.50;2406.40;;;;;;5049938;28;20020;-75
2023/10/10 13:51:18;;;;;;;18.70;8.63;;;563.70;2432.00;;;;;;5053004;28;20116;-72
2023/10/10 13:53:45;;;;;;;6.28;3.20;;;563.20;2432.00;;;;;;5053401;28;20123;-71
2023/10/10 13:56:13;;;;;;;6.40;3.58;;;563.20;2432.00;;;;;;5046720;28;20079;-73
2023/10/10 13:58:47;;;;;;;7.47;3.65;;;538.50;2406.40;;;;;;5047629;28;20020;-72
2023/10/10 14:03:45;;;;;;;11.43;6.40;;;538.50;2406.40;;;;;;5058310;28;20013;-71
2023/10/10 14:06:22;;;;;;;5.97;2.53;;;538.50;2406.40;;;;;;5037967;28;20028;-72
2023/10/10 14:08:48;;;;;;;13.07;3.25;;;538.40;2406.40;;;;;;5042280;28;20022;-72
2023/10/10 14:11:20;;;;;;;13.13;3.85;;;538.40;2406.40;;;;;;5056637;28;20431;-72
2023/10/10 14:13:56;;;;;;;7.05;2.92;;;538.40;2406.40;;;;;;5055124;28;20086;-72
2023/10/10 14:16:23;;;;;;;5.40;2.90;;;538.40;2406.40;;;;;;5043621;28;20044;-71
2023/10/10 14:18:52;;;;;;;4.70;3.08;;;538.50;2406.40;;;;;;5048044;28;20382;-72
2023/10/10 14:21:25;;;;;;;6.10;3.20;;;538.50;2406.40;;;;;;5047290;28;20483;-73
2023/10/10 14:24:13;;;;;;;4.72;3.05;;;538.40;2406.40;;;;;;5042779;28;20152;-73
2023/10/10 14:26:43;;;;;;;5.63;2.80;;;538.40;2406.40;;;;;;5046590;28;20033;-73
2023/10/10 14:29:12;;;;;;;7.68;3.17;;;538.40;2406.40;;;;;;5048354;28;20111;-73
2023/10/10 14:31:45;;;;;;;5.93;3.00;;;538.40;2406.40;;;;;;5057710;28;20017;-73
2023/10/10 14:34:19;;;;;;;5.70;2.72;;;538.30;2406.40;;;;;;5063570;28;20036;-72
2023/10/10 14:36:46;;;;;;;4.82;3.35;;;538.30;2406.40;;;;;;5038738;28;20020;-73
2023/10/10 14:39:28;;;;;;;8.13;3.42;;;538.40;2406.40;;;;;;5050071;28;20021;-73
2023/10/10 14:41:57;;;;;;;11.40;4.18;;;538.40;2406.40;;;;;;5057561;28;20104;-72
2023/10/10 14:44:26;;;;;;;7.88;3.15;;;538.50;2406.40;;;;;;5081873;28;20503;-73
2023/10/10 14:46:54;;;;;;;5.82;2.97;;;563.20;2432.00;;;;;;5050799;28;20025;-73
2023/10/10 14:49:28;;;;;;;6.63;2.78;;;563.20;2432.00;;;;;;5044802;28;20065;-73
2023/10/10 14:51:55;;;;;;;5.88;3.53;;;563.30;2432.00;;;;;;5059713;28;20021;-74
2023/10/10 14:54:21;;;;;;;5.57;3.60;;;563.20;2432.00;;;;;;5051522;28;20033;-75
2023/10/10 14:56:50;;;;;;;5.80;3.38;;;563.30;2432.00;;;;;;5050241;28;20104;-73
2023/10/10 14:59:17;;;;;;;10.85;3.63;;;563.20;2432.00;;;;;;5054268;28;20044;-73
2023/10/10 15:01:50;;;;;;;9.38;3.35;;;563.20;2432.00;;;;;;5049687;28;20028;-73
2023/10/10 15:04:20;;;;;;;4.35;2.65;;;563.20;2432.00;;;;;;5050226;28;20036;-74
2023/10/10 15:06:48;;;;;;;6.38;2.65;;;538.40;2406.40;;;;;;5046424;28;20033;-74
2023/10/10 15:09:19;;;;;;;6.28;3.08;;;538.40;2406.40;;;;;;5057444;28;20528;-74
2023/10/10 15:11:46;;;;;;;8.18;3.38;;;538.40;2406.40;;;;;;5047168;28;20116;-74
2023/10/10 15:14:13;;;;;;;6.07;3.15;;;538.40;2406.40;;;;;;5057334;28;20045;-74
2023/10/10 15:16:40;;;;;;;8.15;3.05;;;538.40;2406.40;;;;;;5055700;28;20025;-74
2023/10/10 15:19:07;;;;;;;5.30;2.90;;;538.40;2406.40;;;;;;5056902;28;20021;-76
2023/10/10 15:21:37;;;;;;;5.07;2.63;;;538.40;2406.40;;;;;;5050761;28;20012;-73
2023/10/10 15:24:06;;;;;;;5.85;2.55;;;538.40;2406.40;;;;;;5052509;28;20056;-74
2023/10/10 15:26:34;;;;;;;8.25;3.92;;;538.40;2406.40;;;;;;5048430;28;20029;-74
2023/10/10 15:29:00;;;;;;;8.10;3.22;;;538.30;2406.40;;;;;;5044289;28;20037;-74
2023/10/10 15:31:31;;;;;;;9.05;3.03;;;538.30;2406.40;;;;;;5056296;28;20371;-73
2023/10/10 15:34:00;;;;;;;5.97;3.53;;;538.10;2406.40;;;;;;5060148;28;20072;-74
2023/10/10 15:36:30;;;;;;;12.27;3.58;;;538.10;2406.40;;;;;;5078914;28;20033;-75
2023/10/10 15:39:09;;;;;;;8.25;3.63;;;538.10;2406.40;;;;;;5052102;28;20040;-74
2023/10/10 15:41:36;;;;;;;6.38;3.25;;;538.10;2406.40;;;;;;5048960;28;20021;-73
2023/10/10 15:44:03;;;;;;;6.35;3.38;;;538.10;2406.40;;;;;;5048044;28;20052;-73
2023/10/10 15:46:34;;;;;;;8.48;3.65;;;538.00;2406.40;;;;;;5054840;28;20032;-74
2023/10/10 15:49:00;;;;;;;8.25;3.28;;;538.00;2406.40;;;;;;5045744;28;20044;-72
2023/10/10 15:51:29;;;;;;;11.27;6.25;;;538.10;2406.40;;;;;;5049416;28;20055;-74
2023/10/10 15:53:55;;;;;;;10.32;7.22;;;538.00;2406.40;;;;;;5053064;28;20040;-73
2023/10/10 15:56:27;;;;;;;10.15;6.10;;;538.00;2406.40;;;;;;5048293;28;20036;-73
2023/10/10 15:58:53;;;;;;;11.52;6.30;;;537.90;2406.40;;;;;;5044704;28;20037;-73
2023/10/10 16:01:34;;;;;;;15.35;5.80;;;538.10;2406.40;;;;;;5088849;28;20448;-72
2023/10/10 16:04:05;;;;;;;10.70;5.43;;;537.60;2406.40;;;;;;5049577;28;20022;-73
2023/10/10 16:06:35;;;;;;;10.75;6.82;;;512.90;2380.80;;;;;;5052153;28;20489;-74
2023/10/10 16:09:19;;;;;;;10.98;5.13;;;512.70;2380.80;;;;;;5047740;28;20021;-74
2023/10/10 16:11:52;;;;;;;6.93;4.13;;;512.60;2380.80;;;;;;5042338;28;20024;-73
2023/10/10 16:14:18;;;;;;;9.48;4.78;;;512.40;2380.80;;;;;;5058002;28;20083;-73
2023/10/10 16:16:46;;;;;;;9.40;4.75;;;512.30;2380.80;;;;;;5042437;28;20041;-73
2023/10/10 16:19:20;;;;;;;9.00;4.68;;;512.20;2380.80;;;;;;5046693;28;20035;-73
2023/10/10 16:21:47;;;;;;;14.50;4.47;;;512.00;2380.80;;;;;;5048214;28;20022;-73
2023/10/10 16:24:16;;;;;;;10.02;5.95;;;512.00;2380.80;;;;;;5046554;28;20025;-71
2023/10/10 16:26:46;;;;;;;15.98;8.85;;;487.30;2380.80;;;;;;5043894;28;20098;-74
2023/10/10 16:29:12;;;;;;;17.08;8.95;;;487.30;2380.80;;;;;;5035778;28;20029;-73
2023/10/10 16:31:43;;;;;;;16.58;9.65;;;487.20;2380.80;;;;;;5050804;28;20089;-72
2023/10/10 16:34:16;;;;;;;14.93;9.60;;;487.10;2380.80;;;;;;5046799;28;20102;-73
2023/10/10 16:36:45;;;;;;;19.00;9.85;;;487.10;2380.80;;;;;;5043671;28;20033;-72
2023/10/10 16:39:13;;;;;;;16.45;8.88;;;487.10;2380.80;;;;;;5047254;28;20025;-73
2023/10/10 16:41:40;;;;;;;15.38;8.15;;;487.20;2380.80;;;;;;5048746;28;20021;-73
2023/10/10 16:44:11;;;;;;;17.15;7.90;;;487.10;2380.80;;;;;;5052179;28;20049;-73
2023/10/10 16:46:38;;;;;;;19.73;8.50;;;487.00;2380.80;;;;;;5055138;28;20112;-74
2023/10/10 16:49:05;;;;;;;13.38;6.97;;;486.90;2380.80;;;;;;5058442;28;20017;-73
2023/10/10 16:51:31;;;;;;;14.85;7.60;;;486.70;2380.80;;;;;;5056029;28;20453;-74
2023/10/10 16:53:57;;;;;;;13.35;5.90;;;486.70;2380.80;;;;;;5048783;28;20037;-73
2023/10/10 16:56:23;;;;;;;14.88;6.07;;;486.60;2380.80;;;;;;5046801;28;20013;-73
2023/10/10 16:58:49;;;;;;;18.45;6.40;;;486.60;2380.80;;;;;;5046398;28;20386;-72
2023/10/10 17:01:16;;;;;;;15.15;6.03;;;486.60;2380.80;;;;;;5048949;28;20111;-73
2023/10/10 17:03:43;;;;;;;8.68;4.72;;;486.40;2380.80;;;;;;5046760;28;20033;-73
2023/10/10 17:06:13;;;;;;;14.88;5.25;;;486.40;2380.80;;;;;;5050147;28;20070;-72
2023/10/10 17:08:39;;;;;;;10.88;4.45;;;486.40;2380.80;;;;;;5054672;28;20025;-72
2023/10/10 17:11:10;;;;;;;10.82;4.47;;;486.40;2380.80;;;;;;5046212;28;20024;-73
2023/10/10 17:13:39;;;;;;;12.50;4.40;;;486.40;2380.80;;;;;;5049216;28;20044;-73
2023/10/10 17:16:12;;;;;;;10.65;4.32;;;486.40;2380.80;;;;;;5053806;28;20025;-72